createdAt,value
2023-02-25T00:00:42.255Z,82.07
2023-02-25T00:01:48.725Z,82.10
2023-02-25T00:02:43.101Z,82.20
2023-02-25T00:03:42.156Z,82.44
2023-02-25T00:04:42.434Z,82.45
2023-02-25T00:05:42.079Z,82.20
2023-02-25T00:06:42.509Z,82.07
2023-02-25T00:07:42.035Z,82.07
2023-02-25T00:08:42.410Z,81.71
2023-02-25T00:09:42.016Z,81.49
2023-02-25T00:10:41.996Z,81.73
2023-02-25T00:11:42.688Z,81.66
2023-02-25T00:12:41.950Z,81.57
2023-02-25T00:13:42.718Z,81.39
2023-02-25T00:14:41.961Z,81.41
2023-02-25T00:15:41.969Z,81.24
2023-02-25T00:16:41.962Z,80.90
2023-02-25T00:17:41.946Z,80.85
2023-02-25T00:18:41.908Z,80.87
2023-02-25T00:19:42.429Z,80.48
2023-02-25T00:20:41.866Z,80.23
2023-02-25T00:21:41.913Z,80.31
2023-02-25T00:22:41.950Z,80.51
2023-02-25T00:23:41.942Z,80.54
2023-02-25T00:24:41.986Z,80.62
2023-02-25T00:25:41.835Z,80.64
2023-02-25T00:26:41.800Z,80.62
2023-02-25T00:27:41.816Z,80.41
2023-02-25T00:28:41.796Z,80.56
2023-02-25T00:29:41.950Z,80.64
2023-02-25T00:30:41.958Z,80.69
2023-02-25T00:31:42.002Z,80.77
2023-02-25T00:32:42.308Z,80.85
2023-02-25T00:33:41.735Z,81.04
2023-02-25T00:34:41.713Z,80.81
2023-02-25T00:35:41.914Z,80.35
2023-02-25T00:36:41.696Z,80.49
2023-02-25T00:37:41.681Z,80.75
2023-02-25T00:38:41.763Z,80.95
2023-02-25T00:39:41.690Z,81.15
2023-02-25T00:40:41.839Z,81.25
2023-02-25T00:41:41.650Z,81.27
2023-02-25T00:42:41.614Z,81.11
2023-02-25T00:43:41.699Z,81.14
2023-02-25T00:44:41.742Z,81.36
2023-02-25T00:45:41.768Z,81.10
2023-02-25T00:46:41.664Z,80.74
2023-02-25T00:47:41.595Z,80.82
2023-02-25T00:48:41.848Z,80.78
2023-02-25T00:49:41.546Z,80.76
2023-02-25T00:50:41.544Z,80.71
2023-02-25T00:51:41.958Z,80.65
2023-02-25T00:52:41.504Z,80.83
2023-02-25T00:53:41.507Z,81.05
2023-02-25T00:54:41.521Z,80.93
2023-02-25T00:55:41.512Z,80.97
2023-02-25T00:56:41.457Z,81.06
2023-02-25T00:57:41.471Z,81.38
2023-02-25T00:58:41.440Z,81.39
2023-02-25T00:59:41.776Z,80.93
2023-02-25T01:00:51.325Z,80.86
2023-02-25T01:01:42.469Z,80.97
2023-02-25T01:02:41.529Z,80.78
2023-02-25T01:03:41.399Z,80.73
2023-02-25T01:04:41.365Z,80.73
2023-02-25T01:05:41.382Z,81.01
2023-02-25T01:06:41.356Z,80.95
2023-02-25T01:07:41.372Z,80.73
2023-02-25T01:08:41.321Z,80.65
2023-02-25T01:09:41.983Z,80.68
2023-02-25T01:10:41.974Z,80.84
2023-02-25T01:11:41.317Z,80.95
2023-02-25T01:12:41.826Z,81.05
2023-02-25T01:13:41.315Z,80.87
2023-02-25T01:14:41.251Z,80.92
2023-02-25T01:15:41.540Z,81.21
2023-02-25T01:16:41.232Z,81.25
2023-02-25T01:17:41.241Z,81.23
2023-02-25T01:18:41.353Z,81.19
2023-02-25T01:19:41.211Z,81.31
2023-02-25T01:20:41.204Z,81.50
2023-02-25T01:21:41.189Z,81.27
2023-02-25T01:22:41.188Z,81.26
2023-02-25T01:23:41.329Z,81.47
2023-02-25T01:24:41.113Z,81.46
2023-02-25T01:25:41.402Z,81.46
2023-02-25T01:26:41.441Z,81.44
2023-02-25T01:27:41.479Z,81.50
2023-02-25T01:28:41.092Z,81.36
2023-02-25T01:29:41.112Z,81.28
2023-02-25T01:30:41.098Z,81.30
2023-02-25T01:31:41.331Z,81.53
2023-02-25T01:32:41.170Z,81.56
2023-02-25T01:33:41.040Z,81.30
2023-02-25T01:34:41.018Z,81.14
2023-02-25T01:35:40.986Z,80.98
2023-02-25T01:36:41.022Z,80.77
2023-02-25T01:37:40.985Z,80.60
2023-02-25T01:38:40.984Z,80.90
2023-02-25T01:39:40.996Z,81.00
2023-02-25T01:40:40.950Z,81.07
2023-02-25T01:41:40.949Z,81.21
2023-02-25T01:42:40.928Z,81.15
2023-02-25T01:43:40.937Z,80.87
2023-02-25T01:44:41.007Z,80.76
2023-02-25T01:45:40.877Z,80.86
2023-02-25T01:46:40.921Z,81.00
2023-02-25T01:47:41.011Z,80.77
2023-02-25T01:48:40.883Z,80.78
2023-02-25T01:49:40.836Z,81.01
2023-02-25T01:50:40.836Z,81.07
2023-02-25T01:51:40.814Z,80.73
2023-02-25T01:52:41.014Z,80.70
2023-02-25T01:53:40.809Z,80.80
2023-02-25T01:54:40.789Z,80.79
2023-02-25T01:55:40.775Z,81.07
2023-02-25T01:56:40.762Z,81.20
2023-02-25T01:57:40.738Z,81.09
2023-02-25T01:58:40.785Z,80.55
2023-02-25T01:59:40.738Z,80.44
2023-02-25T02:00:41.094Z,80.58
2023-02-25T02:01:40.699Z,80.95
2023-02-25T02:02:40.751Z,80.94
2023-02-25T02:03:40.752Z,80.73
2023-02-25T02:04:40.680Z,80.75
2023-02-25T02:05:40.640Z,80.74
2023-02-25T02:06:40.653Z,80.85
2023-02-25T02:07:40.642Z,81.08
2023-02-25T02:08:40.763Z,81.15
2023-02-25T02:09:40.610Z,80.81
2023-02-25T02:10:40.600Z,80.68
2023-02-25T02:11:41.020Z,80.43
2023-02-25T02:12:40.588Z,80.37
2023-02-25T02:13:40.566Z,80.51
2023-02-25T02:14:40.566Z,80.54
2023-02-25T02:15:40.531Z,80.11
2023-02-25T02:16:40.720Z,80.00
2023-02-25T02:17:40.503Z,80.18
2023-02-25T02:18:40.504Z,80.33
2023-02-25T02:19:40.771Z,80.30
2023-02-25T02:20:40.483Z,80.23
2023-02-25T02:21:40.450Z,80.30
2023-02-25T02:22:40.466Z,80.22
2023-02-25T02:23:40.432Z,79.89
2023-02-25T02:24:40.728Z,79.74
2023-02-25T02:25:40.431Z,79.83
2023-02-25T02:26:40.408Z,79.96
2023-02-25T02:27:41.019Z,79.93
2023-02-25T02:28:40.392Z,79.87
2023-02-25T02:29:40.366Z,79.85
2023-02-25T02:30:41.137Z,80.09
2023-02-25T02:31:40.431Z,79.95
2023-02-25T02:32:40.363Z,80.07
2023-02-25T02:33:40.314Z,80.30
2023-02-25T02:34:40.330Z,80.44
2023-02-25T02:35:41.057Z,80.41
2023-02-25T02:36:40.302Z,80.44
2023-02-25T02:37:40.269Z,80.33
2023-02-25T02:38:40.980Z,80.40
2023-02-25T02:39:40.252Z,80.29
2023-02-25T02:40:40.590Z,80.22
2023-02-25T02:41:40.301Z,80.34
2023-02-25T02:42:40.982Z,80.47
2023-02-25T02:43:40.200Z,79.99
2023-02-25T02:44:40.220Z,79.85
2023-02-25T02:45:40.322Z,80.05
2023-02-25T02:46:40.276Z,80.20
2023-02-25T02:47:40.307Z,80.26
2023-02-25T02:48:40.165Z,80.13
2023-02-25T02:49:40.126Z,80.13
2023-02-25T02:50:40.425Z,80.17
2023-02-25T02:51:40.452Z,80.14
2023-02-25T02:52:40.110Z,80.03
2023-02-25T02:53:40.392Z,79.96
2023-02-25T02:54:40.076Z,79.89
2023-02-25T02:55:40.057Z,79.93
2023-02-25T02:56:40.088Z,80.09
2023-02-25T02:57:40.041Z,80.36
2023-02-25T02:58:40.035Z,80.56
2023-02-25T02:59:40.078Z,80.71
2023-02-25T03:00:40.033Z,80.75
2023-02-25T03:01:40.056Z,80.49
2023-02-25T03:02:39.986Z,80.42
2023-02-25T03:03:40.017Z,80.28
2023-02-25T03:04:40.059Z,80.21
2023-02-25T03:05:39.952Z,80.18
2023-02-25T03:06:40.063Z,79.86
2023-02-25T03:07:39.907Z,79.71
2023-02-25T03:08:39.905Z,79.78
2023-02-25T03:09:40.055Z,79.75
2023-02-25T03:10:39.883Z,79.79
2023-02-25T03:11:40.065Z,79.96
2023-02-25T03:12:40.070Z,80.07
2023-02-25T03:13:39.838Z,80.04
2023-02-25T03:14:40.074Z,79.64
2023-02-25T03:15:40.073Z,79.64
2023-02-25T03:16:39.869Z,79.79
2023-02-25T03:17:40.063Z,80.06
2023-02-25T03:18:40.073Z,80.27
2023-02-25T03:19:40.070Z,80.28
2023-02-25T03:20:40.076Z,80.22
2023-02-25T03:21:40.072Z,80.23
2023-02-25T03:22:40.073Z,80.35
2023-02-25T03:23:39.867Z,80.37
2023-02-25T03:24:40.080Z,80.29
2023-02-25T03:25:39.726Z,80.20
2023-02-25T03:26:39.729Z,79.79
2023-02-25T03:27:39.760Z,79.74
2023-02-25T03:28:39.791Z,79.87
2023-02-25T03:29:39.655Z,79.90
2023-02-25T03:30:39.893Z,79.98
2023-02-25T03:31:40.098Z,79.88
2023-02-25T03:32:39.717Z,79.59
2023-02-25T03:33:39.961Z,79.55
2023-02-25T03:34:40.012Z,79.56
2023-02-25T03:35:39.608Z,79.83
2023-02-25T03:36:39.673Z,79.93
2023-02-25T03:37:39.565Z,80.06
2023-02-25T03:38:39.576Z,80.10
2023-02-25T03:39:40.094Z,80.05
2023-02-25T03:40:39.542Z,79.86
2023-02-25T03:41:39.553Z,79.76
2023-02-25T03:42:40.097Z,79.87
2023-02-25T03:43:39.502Z,79.92
2023-02-25T03:44:39.523Z,79.75
2023-02-25T03:45:39.610Z,79.63
2023-02-25T03:46:39.603Z,79.81
2023-02-25T03:47:39.615Z,79.96
2023-02-25T03:48:39.654Z,79.96
2023-02-25T03:49:39.682Z,79.81
2023-02-25T03:50:39.729Z,79.75
2023-02-25T03:51:39.444Z,80.08
2023-02-25T03:52:39.796Z,80.41
2023-02-25T03:53:39.372Z,80.58
2023-02-25T03:54:39.627Z,80.77
2023-02-25T03:55:39.880Z,80.80
2023-02-25T03:56:39.376Z,80.77
2023-02-25T03:57:40.021Z,80.84
2023-02-25T03:58:39.991Z,81.07
2023-02-25T03:59:39.300Z,81.28
2023-02-25T04:00:39.827Z,81.28
2023-02-25T04:01:40.046Z,80.70
2023-02-25T04:02:39.755Z,80.38
2023-02-25T04:03:39.503Z,80.36
2023-02-25T04:04:40.120Z,80.43
2023-02-25T04:05:39.339Z,80.54
2023-02-25T04:06:39.350Z,80.55
2023-02-25T04:07:39.506Z,80.46
2023-02-25T04:08:39.251Z,80.53
2023-02-25T04:09:39.236Z,80.50
2023-02-25T04:10:39.276Z,80.35
2023-02-25T04:11:39.191Z,80.52
2023-02-25T04:12:39.158Z,80.49
2023-02-25T04:13:39.164Z,80.29
2023-02-25T04:14:39.155Z,80.16
2023-02-25T04:15:39.176Z,80.26
2023-02-25T04:16:39.135Z,80.28
2023-02-25T04:17:39.085Z,80.35
2023-02-25T04:18:39.115Z,80.43
2023-02-25T04:19:39.097Z,80.08
2023-02-25T04:20:39.134Z,79.86
2023-02-25T04:21:39.105Z,79.85
2023-02-25T04:22:39.133Z,79.86
2023-02-25T04:23:39.117Z,79.81
2023-02-25T04:24:39.119Z,79.91
2023-02-25T04:25:39.108Z,80.02
2023-02-25T04:26:39.129Z,79.94
2023-02-25T04:27:38.989Z,79.99
2023-02-25T04:28:38.974Z,79.79
2023-02-25T04:29:39.017Z,79.86
2023-02-25T04:30:38.967Z,80.14
2023-02-25T04:31:39.165Z,80.17
2023-02-25T04:32:39.223Z,80.18
2023-02-25T04:33:38.911Z,80.27
2023-02-25T04:34:39.178Z,80.49
2023-02-25T04:35:38.893Z,80.65
2023-02-25T04:36:38.888Z,80.64
2023-02-25T04:37:39.269Z,80.53
2023-02-25T04:38:38.869Z,80.52
2023-02-25T04:39:38.828Z,80.62
2023-02-25T04:40:39.142Z,80.47
2023-02-25T04:41:38.819Z,80.51
2023-02-25T04:42:39.428Z,80.58
2023-02-25T04:43:39.110Z,80.47
2023-02-25T04:44:38.796Z,80.39
2023-02-25T04:45:38.937Z,80.30
2023-02-25T04:46:38.976Z,80.29
2023-02-25T04:47:39.587Z,80.47
2023-02-25T04:48:39.145Z,80.62
2023-02-25T04:49:39.528Z,80.77
2023-02-25T04:50:38.753Z,80.64
2023-02-25T04:51:38.693Z,80.70
2023-02-25T04:52:38.693Z,80.31
2023-02-25T04:53:38.820Z,80.36
2023-02-25T04:54:38.659Z,80.30
2023-02-25T04:55:38.884Z,80.17
2023-02-25T04:56:38.931Z,80.25
2023-02-25T04:57:38.611Z,79.94
2023-02-25T04:58:38.837Z,79.96
2023-02-25T04:59:39.033Z,80.02
2023-02-25T05:00:39.069Z,80.20
2023-02-25T05:01:38.718Z,80.36
2023-02-25T05:02:38.569Z,80.56
2023-02-25T05:03:38.580Z,80.41
2023-02-25T05:04:38.625Z,80.17
2023-02-25T05:05:38.545Z,80.27
2023-02-25T05:06:39.286Z,80.27
2023-02-25T05:07:38.503Z,80.34
2023-02-25T05:08:38.507Z,80.54
2023-02-25T05:09:39.150Z,80.67
2023-02-25T05:10:38.490Z,80.53
2023-02-25T05:11:39.448Z,80.30
2023-02-25T05:12:39.170Z,80.17
2023-02-25T05:13:38.428Z,80.17
2023-02-25T05:14:38.454Z,80.31
2023-02-25T05:15:38.404Z,80.40
2023-02-25T05:16:38.469Z,80.55
2023-02-25T05:17:38.550Z,80.61
2023-02-25T05:18:38.389Z,80.41
2023-02-25T05:19:38.612Z,80.37
2023-02-25T05:20:38.711Z,80.56
2023-02-25T05:21:38.359Z,80.95
2023-02-25T05:22:38.730Z,81.37
2023-02-25T05:23:38.332Z,81.83
2023-02-25T05:24:38.316Z,82.26
2023-02-25T05:25:38.813Z,82.58
2023-02-25T05:26:38.316Z,82.88
2023-02-25T05:27:38.907Z,82.97
2023-02-25T05:28:38.931Z,83.00
2023-02-25T05:29:38.308Z,83.14
2023-02-25T05:30:38.349Z,83.25
2023-02-25T05:31:38.313Z,83.51
2023-02-25T05:32:38.376Z,83.64
2023-02-25T05:33:38.237Z,83.76
2023-02-25T05:34:38.216Z,83.93
2023-02-25T05:35:38.180Z,84.11
2023-02-25T05:36:38.193Z,84.13
2023-02-25T05:37:38.140Z,84.14
2023-02-25T05:38:38.180Z,84.23
2023-02-25T05:39:38.131Z,84.33
2023-02-25T05:40:38.126Z,84.55
2023-02-25T05:41:38.185Z,84.53
2023-02-25T05:42:38.117Z,84.33
2023-02-25T05:43:38.082Z,84.08
2023-02-25T05:44:38.072Z,83.90
2023-02-25T05:45:38.072Z,84.06
2023-02-25T05:46:38.269Z,84.32
2023-02-25T05:47:38.046Z,84.33
2023-02-25T05:48:38.028Z,84.43
2023-02-25T05:49:38.170Z,84.36
2023-02-25T05:50:38.011Z,84.41
2023-02-25T05:51:38.876Z,84.23
2023-02-25T05:52:37.985Z,83.97
2023-02-25T05:53:37.982Z,84.13
2023-02-25T05:54:38.010Z,84.11
2023-02-25T05:55:37.955Z,84.17
2023-02-25T05:56:37.927Z,84.17
2023-02-25T05:57:38.192Z,84.05
2023-02-25T05:58:37.899Z,84.06
2023-02-25T05:59:37.902Z,84.16
2023-02-25T06:00:37.881Z,84.12
2023-02-25T06:01:37.940Z,84.08
2023-02-25T06:02:38.043Z,84.06
2023-02-25T06:03:37.856Z,84.06
2023-02-25T06:04:37.818Z,84.26
2023-02-25T06:05:38.138Z,84.28
2023-02-25T06:06:37.807Z,84.28
2023-02-25T06:07:37.841Z,84.24
2023-02-25T06:08:37.778Z,84.28
2023-02-25T06:09:37.785Z,84.34
2023-02-25T06:10:38.195Z,84.36
2023-02-25T06:11:37.752Z,84.41
2023-02-25T06:12:37.749Z,84.39
2023-02-25T06:13:37.830Z,84.26
2023-02-25T06:14:37.705Z,84.02
2023-02-25T06:15:37.719Z,83.99
2023-02-25T06:16:37.716Z,83.84
2023-02-25T06:17:37.712Z,83.84
2023-02-25T06:18:37.825Z,83.92
2023-02-25T06:19:37.659Z,83.84
2023-02-25T06:20:37.638Z,83.87
2023-02-25T06:21:37.938Z,83.86
2023-02-25T06:22:37.644Z,83.99
2023-02-25T06:23:38.014Z,83.95
2023-02-25T06:24:38.034Z,83.91
2023-02-25T06:25:37.586Z,84.03
2023-02-25T06:26:38.101Z,84.08
2023-02-25T06:27:37.607Z,84.00
2023-02-25T06:28:37.547Z,83.76
2023-02-25T06:29:38.206Z,83.85
2023-02-25T06:30:37.558Z,83.92
2023-02-25T06:31:38.285Z,83.98
2023-02-25T06:32:37.680Z,84.03
2023-02-25T06:33:37.497Z,84.04
2023-02-25T06:34:38.269Z,84.25
2023-02-25T06:35:37.473Z,84.53
2023-02-25T06:36:37.456Z,84.52
2023-02-25T06:37:37.579Z,84.39
2023-02-25T06:38:37.430Z,84.35
2023-02-25T06:39:38.198Z,84.43
2023-02-25T06:40:38.228Z,84.43
2023-02-25T06:41:37.533Z,84.28
2023-02-25T06:42:37.410Z,84.09
2023-02-25T06:43:37.395Z,84.12
2023-02-25T06:44:37.432Z,84.11
2023-02-25T06:45:37.505Z,84.07
2023-02-25T06:46:37.330Z,84.12
2023-02-25T06:47:37.535Z,84.33
2023-02-25T06:48:37.314Z,84.49
2023-02-25T06:49:37.309Z,84.12
2023-02-25T06:50:37.631Z,83.99
2023-02-25T06:51:37.291Z,83.94
2023-02-25T06:52:37.688Z,83.92
2023-02-25T06:53:37.733Z,83.98
2023-02-25T06:54:37.247Z,84.09
2023-02-25T06:55:37.253Z,84.10
2023-02-25T06:56:37.232Z,83.87
2023-02-25T06:57:37.233Z,83.92
2023-02-25T06:58:37.231Z,84.01
2023-02-25T06:59:37.199Z,84.12
2023-02-25T07:00:37.300Z,84.13
2023-02-25T07:01:37.336Z,84.21
2023-02-25T07:02:37.161Z,83.97
2023-02-25T07:03:37.244Z,83.93
2023-02-25T07:04:37.166Z,83.83
2023-02-25T07:05:37.133Z,83.80
2023-02-25T07:06:37.230Z,83.82
2023-02-25T07:07:37.106Z,83.69
2023-02-25T07:08:37.576Z,83.45
2023-02-25T07:09:37.248Z,83.47
2023-02-25T07:10:37.661Z,83.33
2023-02-25T07:11:37.246Z,83.31
2023-02-25T07:12:37.037Z,83.20
2023-02-25T07:13:37.030Z,83.21
2023-02-25T07:14:37.253Z,83.16
2023-02-25T07:15:37.860Z,83.10
2023-02-25T07:16:37.237Z,83.07
2023-02-25T07:17:37.247Z,83.05
2023-02-25T07:18:36.963Z,82.83
2023-02-25T07:19:37.245Z,82.64
2023-02-25T07:20:36.936Z,82.48
2023-02-25T07:21:36.947Z,82.61
2023-02-25T07:22:37.246Z,82.65
2023-02-25T07:23:38.055Z,82.26
2023-02-25T07:24:37.246Z,82.11
2023-02-25T07:25:37.249Z,82.19
2023-02-25T07:26:36.972Z,82.03
2023-02-25T07:27:37.257Z,81.81
2023-02-25T07:28:36.835Z,81.80
2023-02-25T07:29:36.840Z,81.89
2023-02-25T07:30:36.886Z,81.97
2023-02-25T07:31:36.900Z,82.23
2023-02-25T07:32:36.932Z,82.42
2023-02-25T07:33:36.999Z,81.61
2023-02-25T07:34:36.763Z,81.44
2023-02-25T07:35:36.794Z,81.65
2023-02-25T07:36:36.746Z,81.93
2023-02-25T07:37:37.113Z,81.92
2023-02-25T07:38:37.130Z,81.86
2023-02-25T07:39:36.734Z,81.83
2023-02-25T07:40:36.698Z,81.80
2023-02-25T07:41:36.769Z,81.81
2023-02-25T07:42:36.679Z,81.79
2023-02-25T07:43:36.835Z,81.59
2023-02-25T07:44:36.658Z,81.52
2023-02-25T07:45:36.653Z,81.44
2023-02-25T07:46:36.949Z,81.18
2023-02-25T07:47:36.643Z,81.10
2023-02-25T07:48:37.022Z,81.14
2023-02-25T07:49:37.057Z,81.10
2023-02-25T07:50:37.088Z,81.33
2023-02-25T07:51:36.601Z,81.40
2023-02-25T07:52:36.630Z,80.82
2023-02-25T07:53:36.568Z,80.59
2023-02-25T07:54:36.553Z,80.66
2023-02-25T07:55:36.575Z,80.73
2023-02-25T07:56:36.510Z,80.72
2023-02-25T07:57:37.285Z,80.60
2023-02-25T07:58:36.951Z,80.64
2023-02-25T07:59:37.281Z,80.58
2023-02-25T08:00:36.482Z,80.60
2023-02-25T08:01:36.489Z,80.87
2023-02-25T08:02:36.506Z,80.87
2023-02-25T08:03:36.453Z,80.93
2023-02-25T08:04:37.273Z,80.81
2023-02-25T08:05:37.293Z,80.62
2023-02-25T08:06:36.394Z,80.67
2023-02-25T08:07:37.290Z,80.81
2023-02-25T08:08:36.395Z,80.81
2023-02-25T08:09:36.384Z,80.89
2023-02-25T08:10:37.142Z,80.70
2023-02-25T08:11:36.356Z,80.49
2023-02-25T08:12:36.337Z,80.40
2023-02-25T08:13:36.336Z,80.17
2023-02-25T08:14:36.315Z,80.26
2023-02-25T08:15:36.316Z,80.25
2023-02-25T08:16:36.299Z,80.52
2023-02-25T08:17:36.295Z,80.62
2023-02-25T08:18:36.264Z,80.14
2023-02-25T08:19:36.268Z,79.56
2023-02-25T08:20:36.245Z,79.79
2023-02-25T08:21:36.254Z,79.99
2023-02-25T08:22:36.219Z,79.92
2023-02-25T08:23:36.221Z,80.11
2023-02-25T08:24:36.182Z,79.94
2023-02-25T08:25:36.194Z,79.64
2023-02-25T08:26:36.176Z,79.72
2023-02-25T08:27:36.227Z,79.99
2023-02-25T08:28:37.335Z,80.04
2023-02-25T08:29:36.148Z,80.16
2023-02-25T08:30:36.166Z,80.45
2023-02-25T08:31:36.252Z,80.32
2023-02-25T08:32:36.244Z,79.92
2023-02-25T08:33:36.104Z,79.94
2023-02-25T08:34:36.112Z,79.91
2023-02-25T08:35:36.093Z,79.91
2023-02-25T08:36:36.066Z,79.44
2023-02-25T08:37:36.164Z,79.54
2023-02-25T08:38:36.027Z,79.50
2023-02-25T08:39:36.035Z,79.68
2023-02-25T08:40:36.015Z,79.49
2023-02-25T08:41:36.008Z,79.54
2023-02-25T08:42:36.017Z,79.92
2023-02-25T08:43:35.988Z,79.75
2023-02-25T08:44:36.304Z,79.74
2023-02-25T08:45:35.975Z,79.50
2023-02-25T08:46:35.950Z,79.80
2023-02-25T08:47:35.962Z,79.63
2023-02-25T08:48:35.912Z,79.47
2023-02-25T08:49:35.910Z,79.92
2023-02-25T08:50:35.883Z,79.92
2023-02-25T08:51:35.890Z,80.02
2023-02-25T08:52:35.900Z,80.08
2023-02-25T08:53:35.895Z,80.00
2023-02-25T08:54:35.843Z,80.33
2023-02-25T08:55:36.326Z,80.67
2023-02-25T08:56:35.828Z,80.86
2023-02-25T08:57:35.820Z,81.04
2023-02-25T08:58:35.812Z,81.32
2023-02-25T08:59:35.816Z,80.66
2023-02-25T09:00:35.796Z,80.42
2023-02-25T09:01:35.775Z,80.54
2023-02-25T09:02:35.836Z,80.24
2023-02-25T09:03:35.879Z,80.31
2023-02-25T09:04:35.773Z,80.44
2023-02-25T09:05:35.729Z,80.37
2023-02-25T09:06:35.745Z,79.95
2023-02-25T09:07:35.709Z,79.49
2023-02-25T09:08:35.699Z,79.47
2023-02-25T09:09:35.679Z,79.87
2023-02-25T09:10:48.225Z,80.01
2023-02-25T09:11:36.658Z,80.27
2023-02-25T09:12:35.629Z,80.25
2023-02-25T09:13:35.649Z,80.17
2023-02-25T09:14:35.601Z,80.31
2023-02-25T09:15:35.609Z,80.27
2023-02-25T09:16:35.696Z,80.33
2023-02-25T09:17:35.596Z,80.04
2023-02-25T09:18:35.580Z,79.92
2023-02-25T09:19:35.574Z,79.62
2023-02-25T09:20:35.546Z,79.39
2023-02-25T09:21:35.559Z,79.50
2023-02-25T09:22:35.532Z,79.40
2023-02-25T09:23:35.545Z,79.47
2023-02-25T09:24:35.512Z,80.07
2023-02-25T09:25:35.527Z,80.23
2023-02-25T09:26:35.502Z,79.20
2023-02-25T09:27:36.341Z,79.02
2023-02-25T09:28:36.291Z,78.54
2023-02-25T09:29:36.202Z,77.94
2023-02-25T09:30:36.351Z,77.62
2023-02-25T09:31:35.512Z,77.95
2023-02-25T09:32:36.506Z,77.84
2023-02-25T09:33:36.318Z,77.79
2023-02-25T09:34:35.391Z,77.70
2023-02-25T09:35:35.384Z,77.79
2023-02-25T09:36:35.374Z,77.44
2023-02-25T09:37:35.361Z,76.91
2023-02-25T09:38:35.360Z,76.87
2023-02-25T09:39:35.360Z,76.29
2023-02-25T09:40:35.339Z,76.10
2023-02-25T09:41:35.359Z,76.41
2023-02-25T09:42:35.353Z,76.85
2023-02-25T09:43:35.350Z,77.40
2023-02-25T09:44:35.291Z,77.60
2023-02-25T09:45:35.363Z,77.38
2023-02-25T09:46:35.259Z,76.87
2023-02-25T09:47:35.267Z,76.46
2023-02-25T09:48:35.347Z,76.34
2023-02-25T09:49:35.258Z,76.70
2023-02-25T09:50:35.404Z,76.86
2023-02-25T09:51:35.357Z,76.67
2023-02-25T09:52:35.182Z,76.76
2023-02-25T09:53:35.364Z,76.61
2023-02-25T09:54:35.363Z,75.83
2023-02-25T09:55:35.196Z,76.02
2023-02-25T09:56:35.357Z,75.58
2023-02-25T09:57:35.175Z,74.55
2023-02-25T09:58:35.355Z,74.57
2023-02-25T09:59:35.225Z,75.47
2023-02-25T10:00:35.107Z,75.29
2023-02-25T10:01:35.366Z,74.93
2023-02-25T10:02:35.128Z,75.37
2023-02-25T10:03:35.128Z,75.57
2023-02-25T10:04:35.366Z,76.15
2023-02-25T10:05:35.096Z,76.36
2023-02-25T10:06:35.130Z,75.98
2023-02-25T10:07:35.365Z,76.58
2023-02-25T10:08:35.016Z,76.90
2023-02-25T10:09:35.211Z,77.24
2023-02-25T10:10:35.010Z,77.73
2023-02-25T10:11:34.965Z,77.89
2023-02-25T10:12:35.364Z,78.18
2023-02-25T10:13:34.925Z,78.69
2023-02-25T10:14:35.378Z,78.49
2023-02-25T10:15:35.383Z,79.03
2023-02-25T10:16:34.956Z,79.31
2023-02-25T10:17:34.891Z,79.84
2023-02-25T10:18:34.904Z,80.44
2023-02-25T10:19:34.862Z,80.33
2023-02-25T10:20:35.029Z,80.92
2023-02-25T10:21:36.871Z,81.43
2023-02-25T10:22:35.397Z,81.74
2023-02-25T10:23:35.402Z,82.31
2023-02-25T10:24:34.828Z,82.60
2023-02-25T10:25:34.801Z,82.98
2023-02-25T10:26:34.831Z,83.26
2023-02-25T10:27:34.776Z,83.45
2023-02-25T10:28:34.896Z,83.71
2023-02-25T10:29:34.932Z,83.92
2023-02-25T10:30:34.877Z,84.02
2023-02-25T10:31:35.073Z,84.19
2023-02-25T10:32:34.796Z,84.55
2023-02-25T10:33:34.796Z,84.36
2023-02-25T10:34:34.710Z,83.59
2023-02-25T10:35:34.671Z,83.45
2023-02-25T10:36:34.868Z,83.44
2023-02-25T10:37:34.687Z,83.57
2023-02-25T10:38:34.928Z,83.85
2023-02-25T10:39:34.640Z,84.15
2023-02-25T10:40:34.631Z,84.35
2023-02-25T10:41:35.029Z,84.55
2023-02-25T10:42:34.632Z,84.74
2023-02-25T10:43:34.607Z,84.84
2023-02-25T10:44:34.607Z,84.86
2023-02-25T10:45:34.558Z,84.50
2023-02-25T10:46:35.219Z,84.34
2023-02-25T10:47:34.594Z,84.45
2023-02-25T10:48:34.537Z,84.39
2023-02-25T10:49:34.926Z,84.18
2023-02-25T10:50:45.425Z,84.11
2023-02-25T10:51:35.746Z,84.10
2023-02-25T10:52:35.399Z,83.70
2023-02-25T10:53:34.512Z,83.46
2023-02-25T10:54:35.233Z,83.33
2023-02-25T10:55:34.649Z,83.49
2023-02-25T10:56:34.453Z,83.42
2023-02-25T10:57:35.412Z,83.38
2023-02-25T10:58:34.452Z,83.48
2023-02-25T10:59:34.403Z,83.63
2023-02-25T11:00:34.407Z,83.55
2023-02-25T11:01:34.447Z,83.35
2023-02-25T11:02:34.433Z,83.32
2023-02-25T11:03:34.413Z,83.45
2023-02-25T11:04:34.486Z,83.09
2023-02-25T11:05:34.423Z,82.38
2023-02-25T11:06:34.344Z,82.16
2023-02-25T11:07:34.335Z,82.23
2023-02-25T11:08:34.386Z,82.45
2023-02-25T11:09:34.285Z,81.88
2023-02-25T11:10:34.418Z,81.69
2023-02-25T11:11:34.418Z,81.53
2023-02-25T11:12:34.276Z,81.83
2023-02-25T11:13:34.421Z,82.15
2023-02-25T11:14:34.286Z,82.66
2023-02-25T11:15:44.365Z,82.69
2023-02-25T11:16:35.374Z,82.33
2023-02-25T11:17:34.225Z,82.03
2023-02-25T11:18:34.229Z,82.08
2023-02-25T11:19:34.252Z,82.33
2023-02-25T11:20:34.197Z,82.54
2023-02-25T11:21:34.319Z,82.62
2023-02-25T11:22:34.148Z,82.36
2023-02-25T11:23:34.141Z,82.39
2023-02-25T11:24:34.420Z,82.20
2023-02-25T11:25:34.112Z,82.08
2023-02-25T11:26:34.440Z,82.38
2023-02-25T11:27:35.271Z,82.72
2023-02-25T11:28:34.078Z,83.07
2023-02-25T11:29:34.436Z,83.32
2023-02-25T11:30:34.099Z,83.40
2023-02-25T11:31:34.092Z,83.67
2023-02-25T11:32:34.506Z,83.33
2023-02-25T11:33:34.040Z,83.14
2023-02-25T11:34:34.437Z,82.69
2023-02-25T11:35:33.996Z,81.76
2023-02-25T11:36:34.003Z,82.07
2023-02-25T11:38:33.981Z,81.67
2023-02-25T11:39:34.426Z,81.38
2023-02-25T11:40:34.444Z,80.73
2023-02-25T11:41:34.442Z,80.66
2023-02-25T11:42:34.438Z,80.54
2023-02-25T11:43:33.902Z,80.32
2023-02-25T11:44:33.934Z,80.31
2023-02-25T11:45:34.442Z,79.18
2023-02-25T11:46:34.452Z,77.80
2023-02-25T11:47:33.876Z,77.63
2023-02-25T11:48:33.856Z,78.21
2023-02-25T11:49:33.828Z,77.14
2023-02-25T11:50:33.931Z,76.58
2023-02-25T11:51:33.956Z,77.24
2023-02-25T11:52:33.819Z,76.92
2023-02-25T11:53:34.068Z,76.38
2023-02-25T11:54:33.767Z,75.33
2023-02-25T11:55:34.116Z,75.43
2023-02-25T11:56:34.169Z,75.98
2023-02-25T11:57:33.731Z,76.81
2023-02-25T11:58:34.226Z,77.25
2023-02-25T11:59:34.273Z,76.93
2023-02-25T12:00:33.743Z,76.46
2023-02-25T12:01:34.339Z,76.36
2023-02-25T12:02:33.739Z,76.19
2023-02-25T12:03:33.651Z,75.67
2023-02-25T12:04:33.657Z,76.16
2023-02-25T12:05:33.710Z,76.57
2023-02-25T12:06:33.751Z,77.12
2023-02-25T12:07:33.790Z,76.88
2023-02-25T12:08:33.620Z,77.38
2023-02-25T12:09:33.850Z,77.79
2023-02-25T12:10:33.609Z,78.47
2023-02-25T12:11:33.568Z,79.70
2023-02-25T12:12:33.571Z,79.44
2023-02-25T12:13:33.561Z,79.63
2023-02-25T12:14:34.002Z,80.45
2023-02-25T12:15:34.024Z,81.10
2023-02-25T12:16:33.571Z,81.82
2023-02-25T12:17:33.496Z,82.40
2023-02-25T12:18:33.500Z,83.24
2023-02-25T12:19:33.467Z,83.53
2023-02-25T12:20:33.486Z,84.10
2023-02-25T12:21:33.478Z,84.18
2023-02-25T12:22:33.468Z,84.56
2023-02-25T12:23:33.478Z,84.75
2023-02-25T12:24:33.431Z,84.80
2023-02-25T12:25:34.149Z,84.70
2023-02-25T12:26:33.432Z,84.31
2023-02-25T12:27:33.374Z,84.50
2023-02-25T12:28:33.379Z,84.75
2023-02-25T12:29:33.362Z,85.08
2023-02-25T12:30:33.425Z,85.16
2023-02-25T12:31:33.365Z,85.20
2023-02-25T12:32:33.472Z,85.14
2023-02-25T12:33:33.526Z,85.44
2023-02-25T12:34:33.322Z,85.70
2023-02-25T12:35:33.407Z,85.71
2023-02-25T12:36:33.274Z,85.50
2023-02-25T12:37:33.287Z,85.54
2023-02-25T12:38:34.101Z,85.81
2023-02-25T12:39:33.248Z,85.95
2023-02-25T12:40:33.263Z,85.74
2023-02-25T12:41:33.831Z,86.04
2023-02-25T12:42:33.234Z,86.32
2023-02-25T12:43:33.199Z,86.32
2023-02-25T12:44:33.938Z,86.15
2023-02-25T12:45:34.025Z,86.10
2023-02-25T12:46:33.486Z,86.11
2023-02-25T12:47:33.481Z,86.31
2023-02-25T12:48:34.012Z,86.44
2023-02-25T12:49:33.126Z,86.55
2023-02-25T12:50:33.125Z,86.56
2023-02-25T12:51:33.105Z,86.57
2023-02-25T12:52:33.098Z,86.56
2023-02-25T12:53:33.096Z,86.21